Time;durP1;ratioP1;P1;durP2;ratioP2;P2;SDS_P1;SDS_P2;PMS_P1;PMS_P2;Temp;Humidity;BMP_temperature;BMP_pressure;BME280_temperature;BME280_humidity;BME280_pressure;Samples;Min_cycle;Max_cycle;Signal;HPM_P1;HPM_P2
2023/10/18 00:03:01;;;;;;;15.15;5.97;;;;;;;7.89;68.55;99741.88;6075523;23;20428;-92
2023/10/18 00:05:29;;;;;;;12.23;6.72;;;;;;;7.89;68.78;99744.53;6096082;23;20084;-93
2023/10/18 00:07:57;;;;;;;16.02;6.50;;;;;;;7.90;68.51;99743.53;6097160;23;20017;-91
2023/10/18 00:10:25;;;;;;;16.25;7.30;;;;;;;7.88;68.91;99734.88;6072416;23;20024;-91
2023/10/18 00:12:52;;;;;;;14.27;6.68;;;;;;;7.88;68.85;99738.38;6096094;23;20036;-91
2023/10/18 00:15:20;;;;;;;12.00;6.38;;;;;;;7.88;68.77;99730.44;6096232;23;20044;-90
2023/10/18 00:17:48;;;;;;;14.30;7.05;;;;;;;7.74;69.03;99728.06;6073939;23;20060;-90
2023/10/18 00:20:16;;;;;;;14.85;7.70;;;;;;;7.68;69.15;99721.44;6097351;23;20026;-91
2023/10/18 00:22:44;;;;;;;13.45;6.50;;;;;;;7.66;69.58;99725.16;6073050;23;20383;-91
2023/10/18 00:25:11;;;;;;;14.23;6.47;;;;;;;7.67;69.15;99719.75;6071857;23;20032;-92
2023/10/18 00:27:38;;;;;;;21.00;8.35;;;;;;;7.64;68.95;99714.72;6072648;23;20040;-92
2023/10/18 00:30:12;;;;;;;22.08;8.05;;;;;;;7.65;69.20;99713.75;6072646;23;20021;-93
2023/10/18 00:32:41;;;;;;;14.60;7.55;;;;;;;7.64;69.30;99711.25;6072130;23;20025;-93
2023/10/18 00:35:31;;;;;;;14.45;8.10;;;;;;;7.67;69.21;99711.00;6072077;23;20093;-92
2023/10/18 00:37:58;;;;;;;13.73;7.95;;;;;;;7.66;69.23;99702.22;6076256;23;20025;-90
2023/10/18 00:43:04;;;;;;;14.95;7.43;;;;;;;7.68;69.13;99715.31;6096667;23;20018;-91
2023/10/18 00:45:32;;;;;;;16.05;7.93;;;;;;;7.68;69.02;99704.72;6049769;23;20091;-91
2023/10/18 00:48:04;;;;;;;14.90;8.15;;;;;;;7.71;69.28;99707.13;6096363;23;20052;-91
2023/10/18 00:50:34;;;;;;;16.17;8.00;;;;;;;7.72;69.15;99699.09;6073027;23;20052;-90
2023/10/18 00:53:03;;;;;;;18.35;8.50;;;;;;;7.61;69.48;99693.81;6073527;23;20032;-93
2023/10/18 00:55:30;;;;;;;15.32;7.90;;;;;;;7.63;69.31;99691.88;6072349;23;20100;-92
2023/10/18 00:57:58;;;;;;;16.55;8.05;;;;;;;7.69;69.10;99691.41;6096163;23;20037;-89
2023/10/18 01:00:25;;;;;;;16.27;8.02;;;;;;;7.72;68.90;99698.25;6096770;23;20030;-91
2023/10/18 01:02:57;;;;;;;14.45;7.82;;;;;;;7.65;69.19;99681.19;6048419;23;20017;-92
2023/10/18 01:05:25;;;;;;;14.20;7.82;;;;;;;7.60;69.41;99685.03;6097835;23;20025;-92
2023/10/18 01:07:53;;;;;;;14.35;7.72;;;;;;;7.67;69.32;99682.75;6095994;23;20018;-90
2023/10/18 01:10:23;;;;;;;16.00;8.07;;;;;;;7.64;69.37;99688.28;6096090;23;20469;-91
2023/10/18 01:12:52;;;;;;;15.77;8.15;;;;;;;7.61;69.52;99683.25;6096576;23;20467;-91
2023/10/18 01:15:20;;;;;;;14.02;8.48;;;;;;;7.57;69.43;99669.41;6096015;23;20096;-92
2023/10/18 01:17:47;;;;;;;14.10;8.48;;;;;;;7.58;69.53;99671.13;6096346;23;20022;-92
2023/10/18 01:20:48;;;;;;;15.88;8.68;;;;;;;7.55;69.33;99670.50;6073054;23;20028;-92
2023/10/18 01:23:07;;;;;;;16.95;8.52;;;;;;;7.51;69.71;99664.63;6095807;23;20029;-91
2023/10/18 01:25:35;;;;;;;17.15;8.38;;;;;;;7.57;69.79;99664.13;6094074;23;20449;-90
2023/10/18 01:28:02;;;;;;;17.40;8.80;;;;;;;7.58;69.82;99663.19;6118391;23;20029;-91
2023/10/18 01:30:29;;;;;;;14.57;8.07;;;;;;;7.56;69.55;99670.41;6121400;23;20014;-90
2023/10/18 01:32:56;;;;;;;16.65;9.07;;;;;;;7.54;69.44;99658.28;6071921;23;20033;-91
2023/10/18 01:35:23;;;;;;;16.20;8.77;;;;;;;7.52;69.41;99647.81;6095420;23;20074;-90
2023/10/18 01:37:53;;;;;;;15.48;8.38;;;;;;;7.58;69.43;99659.69;6048444;23;20426;-92
2023/10/18 01:42:56;;;;;;;15.55;8.60;;;;;;;7.57;69.47;99640.34;6096782;23;20018;-91
2023/10/18 01:45:30;;;;;;;21.27;8.60;;;;;;;7.57;69.36;99634.25;6095322;23;20021;-91
2023/10/18 01:47:57;;;;;;;16.63;8.65;;;;;;;7.50;69.62;99633.88;6046965;23;20030;-92
2023/10/18 01:50:26;;;;;;;19.27;9.25;;;;;;;7.55;69.38;99638.78;6070237;23;20029;-91
2023/10/18 01:52:53;;;;;;;18.00;9.20;;;;;;;7.56;69.75;99630.75;6094996;23;20385;-90
2023/10/18 01:55:19;;;;;;;15.60;8.70;;;;;;;7.54;69.43;99629.19;6070753;23;20021;-90
2023/10/18 01:57:48;;;;;;;18.02;9.50;;;;;;;7.58;69.55;99627.97;6095206;23;20022;-91
2023/10/18 02:00:18;;;;;;;15.30;8.88;;;;;;;7.56;69.48;99622.00;6096036;23;20026;-93
2023/10/18 02:02:47;;;;;;;23.92;10.38;;;;;;;7.51;69.44;99624.16;6094429;23;20048;-90
2023/10/18 02:05:16;;;;;;;20.73;9.35;;;;;;;7.55;69.47;99621.13;6047216;23;20021;-90
2023/10/18 02:07:47;;;;;;;23.80;10.48;;;;;;;7.51;69.53;99630.28;6093671;23;20022;-94
2023/10/18 02:10:23;;;;;;;16.17;9.25;;;;;;;7.51;69.53;99619.72;6071931;23;20044;-91
2023/10/18 02:12:50;;;;;;;18.77;9.75;;;;;;;7.49;69.64;99624.28;6049700;23;20017;-91
2023/10/18 02:15:17;;;;;;;20.42;9.90;;;;;;;7.46;69.61;99619.25;6095847;23;20022;-92
2023/10/18 02:17:51;;;;;;;23.85;9.60;;;;;;;7.50;69.46;99623.31;6094638;23;20414;-93
2023/10/18 02:20:39;;;;;;;25.67;9.95;;;;;;;7.50;69.90;99623.31;6072828;23;20331;-91
2023/10/18 02:23:12;;;;;;;23.02;9.35;;;;;;;7.48;69.68;99619.97;6075505;23;20315;-92
2023/10/18 02:28:22;;;;;;;24.65;9.65;;;;;;;7.45;69.80;99609.63;6095788;23;20100;-91
2023/10/18 02:31:13;;;;;;;16.63;8.73;;;;;;;7.45;69.92;99616.72;6072490;23;20021;-90
2023/10/18 02:33:42;;;;;;;21.90;9.52;;;;;;;7.37;69.94;99620.78;6095330;23;20021;-91
2023/10/18 02:36:23;;;;;;;18.55;9.10;;;;;;;7.42;69.66;99628.34;6071616;23;20350;-90
2023/10/18 02:38:50;;;;;;;28.63;10.02;;;;;;;7.41;69.76;99623.22;6071835;23;20029;-90
2023/10/18 02:41:29;;;;;;;18.15;9.90;;;;;;;7.33;69.87;99622.00;6105078;23;20075;-89
2023/10/18 02:43:59;;;;;;;21.60;10.48;;;;;;;7.31;70.07;99620.44;6121715;23;20026;-91
2023/10/18 02:46:26;;;;;;;21.23;10.48;;;;;;;7.22;69.92;99623.78;6119909;23;20030;-89
2023/10/18 02:48:55;;;;;;;15.70;9.60;;;;;;;7.24;70.23;99621.88;6071490;23;20072;-91
2023/10/18 02:51:24;;;;;;;18.73;9.57;;;;;;;7.16;70.35;99615.41;6096095;23;20021;-92
2023/10/18 02:54:07;;;;;;;18.77;9.88;;;;;;;7.19;70.48;99614.31;6095849;23;20041;-93
2023/10/18 02:56:37;;;;;;;;;;;;;;;7.13;70.83;99617.44;6076236;23;20021;-90
2023/10/18 02:59:07;;;;;;;22.45;9.82;;;;;;;7.18;70.52;99621.41;6096821;23;19976;-90
2023/10/18 03:01:40;;;;;;;17.55;10.10;;;;;;;7.12;69.95;99616.59;6072812;23;20056;-91
2023/10/18 03:04:16;;;;;;;;;;;;;;;7.05;70.30;99623.31;6119907;23;20096;-91
2023/10/18 03:06:45;;;;;;;19.58;10.13;;;;;;;7.00;70.42;99617.56;6118193;23;19922;-90
2023/10/18 03:09:26;;;;;;;18.13;9.32;;;;;;;7.08;70.20;99612.50;6117620;23;20052;-90
2023/10/18 03:12:02;;;;;;;20.15;10.32;;;;;;;6.96;70.50;99600.25;6074772;23;20026;-93
2023/10/18 03:14:41;;;;;;;23.05;10.73;;;;;;;7.06;70.18;99597.75;6095545;23;20450;-91
2023/10/18 03:17:23;;;;;;;;;;;;;;;6.90;70.66;99606.84;6097372;23;20022;-91
2023/10/18 03:19:54;;;;;;;17.25;9.63;;;;;;;6.93;70.18;99598.69;6098282;23;20365;-91
2023/10/18 03:22:22;;;;;;;19.30;10.27;;;;;;;6.87;70.39;99596.53;6072554;23;20084;-91
2023/10/18 03:24:53;;;;;;;25.35;9.52;;;;;;;6.91;70.77;99607.69;6118953;23;20025;-92
2023/10/18 03:27:21;;;;;;;15.70;9.70;;;;;;;6.97;70.15;99604.56;6071748;23;20031;-91
2023/10/18 03:29:48;;;;;;;19.23;10.15;;;;;;;6.91;70.39;99602.41;6070325;23;20029;-91
2023/10/18 03:32:15;;;;;;;26.42;11.80;;;;;;;6.92;70.62;99599.66;6091293;23;20092;-89
2023/10/18 03:34:42;;;;;;;21.80;11.10;;;;;;;6.92;70.26;99585.59;6095480;23;20025;-92
2023/10/18 03:37:20;;;;;;;18.38;9.82;;;;;;;6.95;70.54;99580.09;6095618;23;20052;-91
2023/10/18 03:39:49;;;;;;;22.23;11.10;;;;;;;6.79;71.00;99579.59;6072556;23;20029;-91
2023/10/18 03:42:31;;;;;;;21.77;10.65;;;;;;;6.83;70.49;99575.78;6120267;23;24212;-89
2023/10/18 03:45:10;;;;;;;20.73;11.10;;;;;;;6.70;71.13;99576.72;6097753;23;20029;-91
2023/10/18 03:47:38;;;;;;;17.88;10.55;;;;;;;6.71;70.97;99572.25;6096140;23;20734;-91
2023/10/18 03:50:49;;;;;;;25.70;10.90;;;;;;;6.77;71.08;99574.44;6119897;23;20032;-89
2023/10/18 03:52:57;;;;;;;19.10;10.38;;;;;;;6.73;71.27;99568.56;6115663;23;20041;-89
2023/10/18 03:55:36;;;;;;;23.85;10.93;;;;;;;6.81;70.77;99567.13;6070397;23;20024;-91
2023/10/18 03:58:08;;;;;;;17.88;10.13;;;;;;;6.80;70.65;99565.47;6097388;23;20025;-89
2023/10/18 04:00:38;;;;;;;18.60;10.63;;;;;;;6.77;70.79;99552.47;6100661;23;20528;-90
2023/10/18 04:03:10;;;;;;;22.92;10.95;;;;;;;6.71;70.80;99552.00;6122940;23;20076;-91
2023/10/18 04:05:43;;;;;;;21.88;11.02;;;;;;;6.74;70.85;99548.28;6147548;23;20025;-93
2023/10/18 04:08:14;;;;;;;26.42;12.15;;;;;;;6.71;71.11;99544.06;6075298;23;20032;-91
2023/10/18 04:10:42;;;;;;;21.08;10.50;;;;;;;6.74;70.97;99541.22;6099389;23;20389;-90
2023/10/18 04:13:12;;;;;;;18.30;10.73;;;;;;;6.76;70.94;99538.44;6074708;23;20028;-91
2023/10/18 04:15:45;;;;;;;25.38;11.52;;;;;;;6.67;71.29;99534.72;6076565;23;20022;-90
2023/10/18 04:18:13;;;;;;;23.52;11.32;;;;;;;6.60;71.35;99530.03;6096345;23;20104;-90
2023/10/18 04:20:46;;;;;;;24.00;10.57;;;;;;;6.63;71.31;99527.16;6094264;23;20029;-89
2023/10/18 04:23:25;;;;;;;21.45;10.68;;;;;;;6.55;71.64;99522.47;6119383;23;20017;-89
2023/10/18 04:26:00;;;;;;;22.55;11.02;;;;;;;6.63;71.12;99525.38;6073777;23;20076;-89
2023/10/18 04:28:37;;;;;;;21.95;11.50;;;;;;;6.71;71.18;99527.41;6096775;23;20025;-88
2023/10/18 04:31:21;;;;;;;21.58;11.35;;;;;;;6.58;71.20;99524.03;6097232;23;20653;-87
2023/10/18 04:33:49;;;;;;;23.83;12.05;;;;;;;6.61;71.38;99532.56;6120309;23;20018;-90
2023/10/18 04:36:20;;;;;;;27.02;11.65;;;;;;;6.67;71.06;99525.97;6119567;23;20468;-87
2023/10/18 04:38:47;;;;;;;27.23;10.60;;;;;;;6.66;71.62;99530.41;6120454;23;20442;-86
2023/10/18 04:43:52;;;;;;;25.60;11.85;;;;;;;6.68;71.25;99530.28;6144414;23;20611;-88
2023/10/18 04:46:26;;;;;;;25.95;11.77;;;;;;;6.56;71.69;99518.88;6120116;23;21375;-90
2023/10/18 04:54:35;;;;;;;23.80;12.20;;;;;;;6.58;71.54;99527.50;6119383;23;20021;-87
2023/10/18 04:57:04;;;;;;;27.50;12.52;;;;;;;6.66;71.45;99513.72;6124918;23;20318;-88
2023/10/18 04:59:44;;;;;;;29.10;13.15;;;;;;;6.71;71.12;99514.22;6120821;23;20092;-88
2023/10/18 05:02:17;;;;;;;27.70;14.10;;;;;;;6.72;71.31;99513.28;6098594;23;20022;-88
2023/10/18 05:04:46;;;;;;;24.25;12.68;;;;;;;6.77;70.90;99518.16;6095176;23;20017;-88
2023/10/18 05:09:41;;;;;;;30.52;14.70;;;;;;;6.70;70.79;99509.91;6095945;23;20022;-87
2023/10/18 05:17:39;;;;;;;28.17;13.00;;;;;;;6.61;71.02;99489.50;6119557;23;20026;-84
2023/10/18 05:22:59;;;;;;;26.98;13.20;;;;;;;6.53;71.25;99500.66;6120412;23;20048;-84
2023/10/18 05:25:30;;;;;;;29.13;13.45;;;;;;;6.52;71.39;99496.34;6119565;23;20025;-83
2023/10/18 05:27:59;;;;;;;26.23;13.55;;;;;;;6.58;71.29;99487.13;6118450;23;20029;-84
2023/10/18 05:31:03;;;;;;;29.67;13.25;;;;;;;6.55;71.50;99492.63;6095412;23;20335;-84
2023/10/18 05:33:16;;;;;;;27.60;13.50;;;;;;;6.58;71.45;99489.75;6141266;23;20021;-83
2023/10/18 05:35:47;;;;;;;25.05;13.35;;;;;;;6.58;71.26;99487.94;6117827;23;20032;-83
2023/10/18 05:43:29;;;;;;;27.25;13.70;;;;;;;6.55;71.42;99482.91;6117924;23;20458;-83
2023/10/18 05:45:57;;;;;;;25.13;13.18;;;;;;;6.53;71.45;99490.09;6097478;23;20032;-83
2023/10/18 05:48:24;;;;;;;26.67;13.38;;;;;;;6.56;71.40;99489.84;6093829;23;20025;-83
2023/10/18 05:51:04;;;;;;;28.13;12.88;;;;;;;6.43;71.98;99487.31;6118908;23;20022;-83
2023/10/18 05:53:31;;;;;;;28.33;12.48;;;;;;;6.47;71.58;99478.22;6120552;23;20559;-83
2023/10/18 05:55:58;;;;;;;28.48;13.00;;;;;;;6.47;71.62;99480.88;6141965;23;20056;-83
2023/10/18 05:58:28;;;;;;;26.02;11.98;;;;;;;6.46;71.34;99480.97;6142414;23;20076;-83
2023/10/18 06:00:55;;;;;;;26.00;12.27;;;;;;;6.43;71.75;99491.75;6142520;23;20080;-83
2023/10/18 06:03:25;;;;;;;28.13;12.15;;;;;;;6.36;71.57;99482.63;6142441;23;20466;-83
2023/10/18 06:05:55;;;;;;;24.90;12.57;;;;;;;6.38;71.74;99489.47;6142706;23;20032;-83
2023/10/18 06:08:23;;;;;;;27.42;13.30;;;;;;;6.43;71.73;99491.75;6144636;23;20029;-83
2023/10/18 06:10:55;;;;;;;27.85;12.57;;;;;;;6.40;71.86;99484.94;6143984;23;20346;-83
2023/10/18 06:13:22;;;;;;;27.85;12.85;;;;;;;6.41;71.79;99481.34;6142698;23;20077;-83
2023/10/18 06:15:52;;;;;;;27.20;13.73;;;;;;;6.36;71.91;99475.59;6070379;23;20029;-83
2023/10/18 06:18:31;;;;;;;25.73;12.32;;;;;;;6.34;72.14;99466.13;6118919;23;20021;-83
2023/10/18 06:21:08;;;;;;;28.95;13.70;;;;;;;6.37;72.16;99468.50;6120680;23;20021;-84
2023/10/18 06:23:38;;;;;;;35.13;18.05;;;;;;;6.39;71.92;99472.72;6094268;23;20683;-83
2023/10/18 06:26:28;;;;;;;41.83;24.55;;;;;;;6.33;72.37;99469.69;6142732;23;20028;-83
2023/10/18 06:29:02;;;;;;;26.25;13.95;;;;;;;6.30;72.11;99471.59;6097992;23;20093;-83
2023/10/18 06:31:29;;;;;;;26.42;14.13;;;;;;;6.32;72.63;99471.50;6142568;23;20092;-83
2023/10/18 06:33:59;;;;;;;29.15;13.93;;;;;;;6.30;72.24;99474.25;6141454;23;20029;-83
2023/10/18 06:36:26;;;;;;;26.45;13.18;;;;;;;6.33;72.31;99469.69;6144377;23;20096;-83
2023/10/18 06:38:53;;;;;;;26.63;14.15;;;;;;;6.29;72.76;99464.66;6093595;23;20017;-83
2023/10/18 06:41:21;;;;;;;24.25;12.80;;;;;;;6.37;72.31;99471.97;6118680;23;20026;-83
2023/10/18 06:43:49;;;;;;;25.67;12.57;;;;;;;6.46;72.02;99471.28;6142428;23;20096;-83
2023/10/18 06:46:26;;;;;;;30.10;14.00;;;;;;;6.43;71.92;99460.13;6143865;23;20028;-83
2023/10/18 06:48:57;;;;;;;35.40;13.95;;;;;;;6.39;71.89;99458.69;6144599;23;20047;-83
2023/10/18 06:51:40;;;;;;;26.48;12.70;;;;;;;6.41;72.26;99468.16;6143819;23;20024;-83
2023/10/18 06:54:13;;;;;;;29.20;13.93;;;;;;;6.33;72.36;99456.50;6143471;23;20481;-83
2023/10/18 06:56:45;;;;;;;25.93;12.53;;;;;;;6.38;72.30;99460.47;6096253;23;20029;-83
2023/10/18 06:59:13;;;;;;;27.30;13.20;;;;;;;6.43;72.62;99452.19;6120727;23;20426;-83
2023/10/18 07:01:58;;;;;;;24.20;12.05;;;;;;;6.46;72.59;99457.22;6094407;23;20052;-83
2023/10/18 07:04:29;;;;;;;27.95;13.18;;;;;;;6.47;72.43;99436.03;6122783;23;20096;-83
2023/10/18 07:06:55;;;;;;;24.40;12.13;;;;;;;6.47;72.02;99440.47;6119239;23;20076;-82
2023/10/18 07:09:26;;;;;;;33.35;12.95;;;;;;;6.34;72.41;99437.13;6095068;23;20450;-83
2023/10/18 07:11:57;;;;;;;28.30;13.15;;;;;;;6.39;72.02;99434.97;6120340;23;20104;-83
2023/10/18 07:14:24;;;;;;;27.17;12.48;;;;;;;6.44;72.31;99440.72;6095880;23;20021;-83
2023/10/18 07:17:00;;;;;;;27.95;11.88;;;;;;;6.40;72.45;99437.47;6143312;23;20026;-83
2023/10/18 07:19:33;;;;;;;25.80;12.38;;;;;;;6.47;72.42;99440.47;6146921;23;20025;-83
2023/10/18 07:22:05;;;;;;;23.52;11.25;;;;;;;6.48;72.22;99431.59;6145507;23;20027;-83
2023/10/18 07:24:39;;;;;;;22.73;11.65;;;;;;;6.47;72.37;99428.13;6143072;23;20045;-83
2023/10/18 07:27:09;;;;;;;25.35;12.98;;;;;;;6.48;72.72;99415.75;6143686;23;20017;-84
2023/10/18 07:29:37;;;;;;;25.85;12.48;;;;;;;6.45;72.37;99413.38;6095832;23;20327;-83
2023/10/18 07:32:07;;;;;;;23.00;12.70;;;;;;;6.39;73.13;99421.78;6094478;23;20024;-83
2023/10/18 07:34:36;;;;;;;24.45;12.48;;;;;;;6.52;73.03;99404.84;6120067;23;20565;-83
2023/10/18 07:37:17;;;;;;;23.00;12.57;;;;;;;6.52;72.59;99406.66;6094699;23;20032;-83
2023/10/18 07:40:04;;;;;;;22.83;11.77;;;;;;;6.56;72.79;99402.81;6143610;23;20472;-83
2023/10/18 07:42:41;;;;;;;31.85;12.23;;;;;;;6.59;72.97;99401.72;6122772;23;20032;-83
2023/10/18 07:45:14;;;;;;;22.92;11.63;;;;;;;6.63;72.53;99400.53;6143512;23;20017;-83
2023/10/18 07:47:42;;;;;;;24.52;11.73;;;;;;;6.68;72.52;99398.38;6095876;23;20029;-83
2023/10/18 07:50:54;;;;;;;29.20;12.95;;;;;;;6.69;73.16;99394.75;6119044;23;20413;-83
2023/10/18 07:53:00;;;;;;;27.63;13.50;;;;;;;6.71;72.63;99393.69;6115647;23;20728;-83
2023/10/18 07:55:27;;;;;;;30.00;12.38;;;;;;;6.76;72.81;99395.13;6118432;23;20097;-83
2023/10/18 07:57:56;;;;;;;21.67;11.38;;;;;;;6.77;73.07;99388.88;6142591;23;20022;-83
2023/10/18 08:00:26;;;;;;;27.80;12.77;;;;;;;6.80;72.74;99381.56;6119962;23;20021;-83
2023/10/18 08:02:52;;;;;;;25.83;12.38;;;;;;;6.83;72.80;99383.94;6070740;23;20033;-83
2023/10/18 08:05:30;;;;;;;24.88;12.20;;;;;;;6.83;73.03;99376.03;6094152;23;20033;-83
2023/10/18 08:08:03;;;;;;;22.88;12.75;;;;;;;6.80;73.12;99375.44;6121777;23;20358;-83
2023/10/18 08:10:32;;;;;;;23.75;11.80;;;;;;;6.85;73.23;99374.13;6143918;23;20021;-83
2023/10/18 08:13:10;;;;;;;28.08;13.20;;;;;;;6.94;73.09;99364.59;6143719;23;20026;-84
2023/10/18 08:15:37;;;;;;;28.50;12.38;;;;;;;6.95;73.01;99356.56;6118331;23;20024;-84
2023/10/18 08:18:16;;;;;;;24.75;12.95;;;;;;;7.01;73.39;99349.94;6143015;23;20484;-83
2023/10/18 08:25:52;;;;;;;27.20;12.35;;;;;;;7.11;73.94;99350.03;6144801;23;20410;-83
2023/10/18 08:28:19;;;;;;;21.80;11.23;;;;;;;7.18;73.73;99338.03;6142723;23;20112;-83
2023/10/18 08:33:12;;;;;;;26.52;12.80;;;;;;;7.25;73.42;99336.56;6118652;23;20029;-83
2023/10/18 08:35:39;;;;;;;29.55;13.93;;;;;;;7.32;73.53;99345.63;6143063;23;20033;-83
2023/10/18 08:38:06;;;;;;;28.77;12.80;;;;;;;7.35;73.66;99340.13;6118436;23;20509;-83
2023/10/18 08:40:37;;;;;;;25.73;13.00;;;;;;;7.40;73.29;99345.00;6119341;23;20381;-83
2023/10/18 08:43:12;;;;;;;26.25;12.68;;;;;;;7.47;73.30;99350.63;6119489;23;20029;-83
2023/10/18 08:45:49;;;;;;;26.52;12.75;;;;;;;7.49;73.51;99346.03;6143197;23;20107;-83
2023/10/18 08:48:17;;;;;;;21.75;11.80;;;;;;;7.53;73.20;99343.03;6144034;23;20013;-83
2023/10/18 08:50:45;;;;;;;26.58;13.48;;;;;;;7.51;73.60;99341.47;6094289;23;20041;-83
2023/10/18 08:53:15;;;;;;;24.10;12.10;;;;;;;7.56;73.99;99342.75;6118449;23;20052;-83
2023/10/18 08:55:43;;;;;;;27.50;13.63;;;;;;;7.57;73.91;99322.44;6118572;23;20530;-83
2023/10/18 08:58:19;;;;;;;28.10;12.77;;;;;;;7.61;74.64;99324.72;6093902;23;20033;-83
2023/10/18 09:03:14;;;;;;;25.50;12.15;;;;;;;7.64;74.10;99312.22;6118499;23;20033;-83
2023/10/18 09:05:41;;;;;;;32.03;13.23;;;;;;;7.66;74.18;99310.25;6117244;23;20029;-83
2023/10/18 09:08:14;;;;;;;24.48;11.80;;;;;;;7.68;74.63;99306.53;6094164;23;20044;-83
2023/10/18 09:10:47;;;;;;;28.58;13.40;;;;;;;7.70;74.74;99298.47;6142646;23;20324;-83
2023/10/18 09:18:25;;;;;;;19.38;11.43;;;;;;;7.85;74.95;99288.41;6118927;23;20569;-83
2023/10/18 09:20:56;;;;;;;26.05;11.82;;;;;;;7.88;74.64;99283.69;6117946;23;20021;-83
2023/10/18 09:23:28;;;;;;;22.35;12.50;;;;;;;7.95;74.00;99284.81;6118262;23;20017;-84
2023/10/18 09:26:10;;;;;;;23.23;11.80;;;;;;;8.00;74.24;99276.50;6118044;23;20457;-83
2023/10/18 09:28:40;;;;;;;28.10;11.27;;;;;;;8.05;74.47;99275.13;6072722;23;20018;-83
2023/10/18 09:31:10;;;;;;;19.60;10.82;;;;;;;8.08;74.26;99281.94;6118074;23;20080;-83
2023/10/18 09:33:38;;;;;;;23.20;11.55;;;;;;;8.15;74.32;99276.97;6142549;23;20093;-83
2023/10/18 09:36:19;;;;;;;24.58;11.07;;;;;;;8.12;74.75;99282.53;6141074;23;20072;-84
2023/10/18 09:38:48;;;;;;;25.27;12.63;;;;;;;8.18;74.63;99279.34;6117708;23;20033;-83
2023/10/18 09:41:16;;;;;;;23.77;11.20;;;;;;;8.21;74.43;99277.25;6117773;23;20037;-84
2023/10/18 09:43:44;;;;;;;20.98;10.63;;;;;;;8.25;73.98;99273.38;6142274;23;20104;-83
2023/10/18 09:46:13;;;;;;;28.58;11.57;;;;;;;8.30;73.99;99274.81;6118635;23;20493;-83
2023/10/18 09:48:44;;;;;;;19.25;10.25;;;;;;;8.32;74.03;99273.69;6141988;23;20112;-83
2023/10/18 09:51:15;;;;;;;22.10;10.60;;;;;;;8.38;73.75;99269.66;6118148;23;20027;-83
2023/10/18 09:53:48;;;;;;;19.20;11.00;;;;;;;8.41;73.53;99264.97;6118044;23;20104;-83
2023/10/18 09:56:18;;;;;;;18.67;10.18;;;;;;;8.42;73.38;99264.00;6117949;23;20028;-83
2023/10/18 09:58:51;;;;;;;19.83;10.15;;;;;;;8.48;73.36;99259.97;6117560;23;20024;-83
2023/10/18 10:01:29;;;;;;;20.23;10.85;;;;;;;8.50;73.34;99262.47;6142299;23;20335;-83
2023/10/18 10:03:56;;;;;;;20.10;9.98;;;;;;;8.55;73.19;99247.00;6094830;23;20010;-83
2023/10/18 10:06:24;;;;;;;19.15;10.13;;;;;;;8.62;73.51;99242.84;6118104;23;20017;-84
2023/10/18 10:09:01;;;;;;;20.25;9.73;;;;;;;8.67;73.58;99240.63;6142322;23;20072;-83
2023/10/18 10:11:38;;;;;;;24.17;10.45;;;;;;;8.72;73.48;99245.50;6119231;23;20014;-83
2023/10/18 10:14:07;;;;;;;17.85;9.80;;;;;;;8.78;73.69;99245.81;6142220;23;20036;-83
2023/10/18 10:16:36;;;;;;;18.83;9.95;;;;;;;8.81;73.34;99232.28;6094338;23;20018;-84
2023/10/18 10:19:11;;;;;;;24.55;10.95;;;;;;;8.86;73.05;99235.34;6142533;23;20028;-83
2023/10/18 10:21:38;;;;;;;19.88;9.70;;;;;;;8.90;73.43;99220.88;6095388;23;20024;-83
2023/10/18 10:32:58;;;;;;;21.38;9.48;;;;;;;9.05;73.20;99199.22;6121231;23;20033;-83
2023/10/18 10:35:29;;;;;;;20.02;9.55;;;;;;;9.13;74.11;99194.06;6118860;23;20025;-84
2023/10/18 10:38:13;;;;;;;18.13;9.93;;;;;;;9.08;73.59;99186.56;6145497;23;20666;-83
2023/10/18 10:40:48;;;;;;;19.80;10.05;;;;;;;9.19;73.47;99185.56;6120348;23;20025;-83
2023/10/18 10:43:18;;;;;;;26.73;11.07;;;;;;;9.18;73.34;99186.53;6143557;23;20092;-83
2023/10/18 10:48:15;;;;;;;17.73;9.57;;;;;;;9.27;72.94;99161.81;6143258;23;20030;-83
2023/10/18 10:50:45;;;;;;;23.50;10.13;;;;;;;9.30;73.59;99163.34;6142861;23;20061;-83
2023/10/18 10:53:12;;;;;;;18.13;9.15;;;;;;;9.35;73.52;99169.88;6143979;23;20081;-83
2023/10/18 10:55:38;;;;;;;22.27;9.52;;;;;;;9.39;73.56;99167.81;6143020;23;20354;-83
2023/10/18 10:58:18;;;;;;;18.88;9.80;;;;;;;9.48;73.07;99168.72;6144807;23;20072;-83
2023/10/18 11:01:04;;;;;;;19.02;9.93;;;;;;;9.47;73.17;99148.53;6120691;23;20029;-83
2023/10/18 11:06:42;;;;;;;24.90;11.40;;;;;;;9.61;72.86;99148.03;6045561;23;20024;-83
2023/10/18 11:09:15;;;;;;;23.83;11.07;;;;;;;9.67;72.47;99139.50;6095116;23;20350;-83
2023/10/18 11:11:43;;;;;;;;;;;;;;;9.63;72.21;99122.22;6120675;23;20113;-84
2023/10/18 11:14:17;;;;;;;20.38;9.05;;;;;;;9.71;72.95;99113.53;6143392;23;19942;-83
2023/10/18 11:16:46;;;;;;;21.08;10.43;;;;;;;9.79;72.68;99108.31;6095618;23;20033;-84
2023/10/18 11:19:16;;;;;;;20.92;9.95;;;;;;;9.84;72.61;99094.59;6143292;23;20033;-84
2023/10/18 11:21:43;;;;;;;21.88;9.95;;;;;;;9.87;73.14;99091.66;6119322;23;20025;-84
2023/10/18 11:24:12;;;;;;;18.70;9.60;;;;;;;9.91;73.43;99093.03;6143134;23;20036;-84
2023/10/18 11:26:40;;;;;;;22.77;10.43;;;;;;;9.90;73.18;99092.22;6118132;23;20442;-83
2023/10/18 11:29:07;;;;;;;22.83;10.13;;;;;;;9.89;72.94;99082.56;6095591;23;20017;-83
2023/10/18 11:31:38;;;;;;;17.30;9.52;;;;;;;9.89;72.49;99079.09;6117877;23;20044;-83
2023/10/18 11:34:14;;;;;;;20.52;9.70;;;;;;;9.90;72.66;99084.25;6142710;23;20024;-83
2023/10/18 11:36:42;;;;;;;18.40;9.15;;;;;;;9.89;72.60;99068.47;6119946;23;20021;-83
2023/10/18 11:41:44;;;;;;;25.20;11.02;;;;;;;9.97;72.75;99047.34;6142254;23;20021;-83
2023/10/18 11:44:16;;;;;;;25.50;9.07;;;;;;;9.99;72.80;99038.25;6118580;23;20048;-84
2023/10/18 11:46:47;;;;;;;19.27;8.63;;;;;;;9.99;73.00;99034.75;6119706;23;20045;-84
2023/10/18 11:49:14;;;;;;;19.25;9.95;;;;;;;10.03;72.94;99030.84;6142774;23;20129;-83
2023/10/18 11:51:43;;;;;;;22.77;10.32;;;;;;;10.05;73.00;99023.56;6143926;23;20025;-84
2023/10/18 11:54:12;;;;;;;19.52;10.13;;;;;;;10.10;73.01;99015.13;6118763;23;20324;-83
2023/10/18 11:56:39;;;;;;;16.38;8.90;;;;;;;10.09;72.60;99011.66;6142189;23;20018;-84
2023/10/18 11:59:06;;;;;;;16.60;8.63;;;;;;;10.10;73.32;99005.38;6142578;23;20102;-83
2023/10/18 12:01:37;;;;;;;21.38;9.68;;;;;;;10.11;73.52;98998.25;6119489;23;20651;-83
2023/10/18 12:04:06;;;;;;;17.55;8.95;;;;;;;10.15;73.47;99000.44;6142449;23;20026;-83
2023/10/18 12:06:34;;;;;;;22.52;9.95;;;;;;;10.19;73.42;98999.13;6143657;23;20025;-83
2023/10/18 12:11:39;;;;;;;22.90;10.05;;;;;;;10.24;73.60;98995.19;6120581;23;20031;-83
2023/10/18 12:14:08;;;;;;;18.15;8.70;;;;;;;10.26;73.42;98987.91;6144732;23;20056;-83
2023/10/18 12:16:35;;;;;;;17.67;8.63;;;;;;;10.28;73.67;98991.25;6143752;23;20390;-84
2023/10/18 12:19:02;;;;;;;17.10;8.43;;;;;;;10.32;73.58;98988.16;6118822;23;20035;-84
2023/10/18 12:21:31;;;;;;;16.25;9.40;;;;;;;10.33;73.50;98981.88;6143035;23;20867;-84
2023/10/18 12:23:58;;;;;;;15.75;8.10;;;;;;;10.34;73.55;98982.69;6118546;23;20746;-83
2023/10/18 12:26:25;;;;;;;18.95;7.72;;;;;;;10.36;73.68;98978.91;6093555;23;20021;-84
2023/10/18 12:28:52;;;;;;;15.38;7.75;;;;;;;10.36;73.32;98962.97;6118001;23;20339;-83
2023/10/18 12:31:28;;;;;;;13.35;7.25;;;;;;;10.36;73.32;98956.84;6094512;23;20487;-84
2023/10/18 12:33:59;;;;;;;16.35;7.85;;;;;;;10.36;73.38;98951.53;6142129;23;20017;-83
2023/10/18 12:36:38;;;;;;;20.45;8.35;;;;;;;10.37;73.53;98945.22;6142623;23;20032;-84
2023/10/18 12:39:12;;;;;;;14.05;7.28;;;;;;;10.36;73.41;98939.09;6142977;23;20013;-83
2023/10/18 12:41:42;;;;;;;20.23;7.53;;;;;;;10.37;73.53;98938.09;6143231;23;20036;-83
2023/10/18 12:44:17;;;;;;;13.18;6.50;;;;;;;10.39;73.90;98920.19;6118829;23;20021;-84
2023/10/18 12:46:45;;;;;;;17.40;6.88;;;;;;;10.42;73.65;98913.75;6144979;23;20029;-83
2023/10/18 12:49:12;;;;;;;13.23;7.43;;;;;;;10.44;73.52;98911.78;6119090;23;20044;-83
2023/10/18 12:51:42;;;;;;;16.52;8.13;;;;;;;10.48;73.36;98910.47;6142226;23;20457;-83
2023/10/18 12:54:19;;;;;;;14.73;6.82;;;;;;;10.51;73.52;98904.84;6142616;23;20337;-83
2023/10/18 12:56:57;;;;;;;21.13;7.72;;;;;;;10.55;73.91;98890.25;6144211;23;20025;-84